sensor_id;sensor_type;location;lat;lon;timestamp;temperature;humidity
2997;DHT22;1508;48.744;9.110;2023-04-12T00:01:41;8.60;99.90
2997;DHT22;1508;48.744;9.110;2023-04-12T00:04:27;8.60;99.90
2997;DHT22;1508;48.744;9.110;2023-04-12T00:07:13;8.70;99.90
2997;DHT22;1508;48.744;9.110;2023-04-12T00:09:58;8.70;99.90
2997;DHT22;1508;48.744;9.110;2023-04-12T00:12:44;8.70;99.90
2997;DHT22;1508;48.744;9.110;2023-04-12T00:15:30;8.70;99.90
2997;DHT22;1508;48.744;9.110;2023-04-12T00:18:16;8.70;99.90
2997;DHT22;1508;48.744;9.110;2023-04-12T00:21:01;8.70;99.90
2997;DHT22;1508;48.744;9.110;2023-04-12T00:23:47;8.60;99.90
2997;DHT22;1508;48.744;9.110;2023-04-12T00:26:33;8.50;99.90
2997;DHT22;1508;48.744;9.110;2023-04-12T00:29:19;8.50;99.90
2997;DHT22;1508;48.744;9.110;2023-04-12T00:32:04;8.50;99.90
2997;DHT22;1508;48.744;9.110;2023-04-12T00:34:50;8.50;99.90
2997;DHT22;1508;48.744;9.110;2023-04-12T00:37:36;8.40;99.90
2997;DHT22;1508;48.744;9.110;2023-04-12T00:40:22;8.30;99.90
2997;DHT22;1508;48.744;9.110;2023-04-12T00:43:08;8.30;99.90
2997;DHT22;1508;48.744;9.110;2023-04-12T00:45:53;8.20;99.90
2997;DHT22;1508;48.744;9.110;2023-04-12T00:48:41;8.30;99.90
2997;DHT22;1508;48.744;9.110;2023-04-12T00:51:27;8.20;99.90
2997;DHT22;1508;48.744;9.110;2023-04-12T00:54:13;8.10;99.90
2997;DHT22;1508;48.744;9.110;2023-04-12T00:57:01;8.10;99.90
2997;DHT22;1508;48.744;9.110;2023-04-12T00:59:47;8.00;99.90
2997;DHT22;1508;48.744;9.110;2023-04-12T01:02:33;8.00;99.90
2997;DHT22;1508;48.744;9.110;2023-04-12T01:05:20;7.90;99.90
2997;DHT22;1508;48.744;9.110;2023-04-12T01:11:12;7.90;99.90
2997;DHT22;1508;48.744;9.110;2023-04-12T01:16:47;7.70;99.90
2997;DHT22;1508;48.744;9.110;2023-04-12T01:28:19;7.70;99.90
2997;DHT22;1508;48.744;9.110;2023-04-12T01:31:06;7.70;99.90
2997;DHT22;1508;48.744;9.110;2023-04-12T01:33:52;7.60;99.90
2997;DHT22;1508;48.744;9.110;2023-04-12T01:36:39;7.60;99.90
2997;DHT22;1508;48.744;9.110;2023-04-12T01:39:26;7.50;99.90
2997;DHT22;1508;48.744;9.110;2023-04-12T01:42:11;7.40;99.90
2997;DHT22;1508;48.744;9.110;2023-04-12T01:45:02;7.30;99.90
2997;DHT22;1508;48.744;9.110;2023-04-12T01:47:48;7.50;99.90
2997;DHT22;1508;48.744;9.110;2023-04-12T01:50:37;7.50;99.90
2997;DHT22;1508;48.744;9.110;2023-04-12T01:53:27;7.30;99.90
2997;DHT22;1508;48.744;9.110;2023-04-12T01:56:17;7.30;99.90
2997;DHT22;1508;48.744;9.110;2023-04-12T01:59:03;7.30;99.90
2997;DHT22;1508;48.744;9.110;2023-04-12T02:01:50;7.30;99.90
2997;DHT22;1508;48.744;9.110;2023-04-12T02:04:36;7.20;99.90
2997;DHT22;1508;48.744;9.110;2023-04-12T02:07:22;7.20;99.90
2997;DHT22;1508;48.744;9.110;2023-04-12T02:10:12;7.20;99.90
2997;DHT22;1508;48.744;9.110;2023-04-12T02:13:01;7.10;99.90
2997;DHT22;1508;48.744;9.110;2023-04-12T02:15:47;7.10;99.90
2997;DHT22;1508;48.744;9.110;2023-04-12T02:18:33;7.20;99.90
2997;DHT22;1508;48.744;9.110;2023-04-12T02:21:18;7.30;99.90
2997;DHT22;1508;48.744;9.110;2023-04-12T02:24:04;7.20;99.90
2997;DHT22;1508;48.744;9.110;2023-04-12T02:26:50;7.30;99.90
2997;DHT22;1508;48.744;9.110;2023-04-12T02:29:36;7.20;99.90
2997;DHT22;1508;48.744;9.110;2023-04-12T02:32:21;7.20;99.90
2997;DHT22;1508;48.744;9.110;2023-04-12T02:35:07;7.20;99.90
2997;DHT22;1508;48.744;9.110;2023-04-12T02:37:53;7.20;99.90
2997;DHT22;1508;48.744;9.110;2023-04-12T02:40:39;7.20;99.90
2997;DHT22;1508;48.744;9.110;2023-04-12T02:43:25;7.20;99.90
2997;DHT22;1508;48.744;9.110;2023-04-12T02:46:14;7.20;99.90
2997;DHT22;1508;48.744;9.110;2023-04-12T02:49:00;7.30;99.90
2997;DHT22;1508;48.744;9.110;2023-04-12T02:51:46;7.30;99.90
2997;DHT22;1508;48.744;9.110;2023-04-12T02:54:32;7.30;99.90
2997;DHT22;1508;48.744;9.110;2023-04-12T02:57:17;7.30;99.90
2997;DHT22;1508;48.744;9.110;2023-04-12T03:00:03;7.20;99.90
2997;DHT22;1508;48.744;9.110;2023-04-12T03:02:49;7.20;99.90
2997;DHT22;1508;48.744;9.110;2023-04-12T03:05:35;7.10;99.90
2997;DHT22;1508;48.744;9.110;2023-04-12T03:08:21;7.10;99.90
2997;DHT22;1508;48.744;9.110;2023-04-12T03:11:06;7.10;99.90
2997;DHT22;1508;48.744;9.110;2023-04-12T03:13:52;7.10;99.90
2997;DHT22;1508;48.744;9.110;2023-04-12T03:16:38;7.10;99.90
2997;DHT22;1508;48.744;9.110;2023-04-12T03:19:23;7.20;99.90
2997;DHT22;1508;48.744;9.110;2023-04-12T03:22:09;7.10;99.90
2997;DHT22;1508;48.744;9.110;2023-04-12T03:24:55;7.20;99.90
2997;DHT22;1508;48.744;9.110;2023-04-12T03:27:41;7.10;99.90
2997;DHT22;1508;48.744;9.110;2023-04-12T03:30:26;7.10;99.90
2997;DHT22;1508;48.744;9.110;2023-04-12T03:33:12;7.20;99.90
2997;DHT22;1508;48.744;9.110;2023-04-12T03:35:58;7.10;99.90
2997;DHT22;1508;48.744;9.110;2023-04-12T03:38:44;7.20;99.90
2997;DHT22;1508;48.744;9.110;2023-04-12T03:41:29;7.10;99.90
2997;DHT22;1508;48.744;9.110;2023-04-12T03:44:15;7.10;99.90
2997;DHT22;1508;48.744;9.110;2023-04-12T03:47:01;7.10;99.90
2997;DHT22;1508;48.744;9.110;2023-04-12T03:49:46;7.10;99.90
2997;DHT22;1508;48.744;9.110;2023-04-12T03:52:32;7.10;99.90
2997;DHT22;1508;48.744;9.110;2023-04-12T03:55:18;7.10;99.90
2997;DHT22;1508;48.744;9.110;2023-04-12T03:58:04;7.00;99.90
2997;DHT22;1508;48.744;9.110;2023-04-12T04:00:50;7.10;99.90
2997;DHT22;1508;48.744;9.110;2023-04-12T04:03:36;7.00;99.90
2997;DHT22;1508;48.744;9.110;2023-04-12T04:06:21;7.00;99.90
2997;DHT22;1508;48.744;9.110;2023-04-12T04:09:07;6.90;99.90
2997;DHT22;1508;48.744;9.110;2023-04-12T04:11:53;7.00;99.90
2997;DHT22;1508;48.744;9.110;2023-04-12T04:14:39;6.90;99.90
2997;DHT22;1508;48.744;9.110;2023-04-12T04:17:24;7.00;99.90
2997;DHT22;1508;48.744;9.110;2023-04-12T04:20:10;7.00;99.90
2997;DHT22;1508;48.744;9.110;2023-04-12T04:22:56;7.00;99.90
2997;DHT22;1508;48.744;9.110;2023-04-12T04:25:42;7.00;99.90
2997;DHT22;1508;48.744;9.110;2023-04-12T04:28:28;7.00;99.90
2997;DHT22;1508;48.744;9.110;2023-04-12T04:31:13;7.10;99.90
2997;DHT22;1508;48.744;9.110;2023-04-12T04:34:00;7.10;99.90
2997;DHT22;1508;48.744;9.110;2023-04-12T04:36:45;7.10;99.90
2997;DHT22;1508;48.744;9.110;2023-04-12T04:39:31;7.10;99.90
2997;DHT22;1508;48.744;9.110;2023-04-12T04:42:17;7.20;99.90
2997;DHT22;1508;48.744;9.110;2023-04-12T04:45:03;7.20;99.90
2997;DHT22;1508;48.744;9.110;2023-04-12T04:47:48;7.20;99.90
2997;DHT22;1508;48.744;9.110;2023-04-12T04:50:34;7.10;99.90
2997;DHT22;1508;48.744;9.110;2023-04-12T04:53:20;7.10;99.90
2997;DHT22;1508;48.744;9.110;2023-04-12T04:56:06;7.00;99.90
2997;DHT22;1508;48.744;9.110;2023-04-12T04:58:52;7.00;99.90
2997;DHT22;1508;48.744;9.110;2023-04-12T05:01:38;7.10;99.90
2997;DHT22;1508;48.744;9.110;2023-04-12T05:04:24;7.10;99.90
2997;DHT22;1508;48.744;9.110;2023-04-12T05:07:09;7.10;99.90
2997;DHT22;1508;48.744;9.110;2023-04-12T05:09:55;7.10;99.90
2997;DHT22;1508;48.744;9.110;2023-04-12T05:12:41;7.20;99.90
2997;DHT22;1508;48.744;9.110;2023-04-12T05:15:28;7.20;99.90
2997;DHT22;1508;48.744;9.110;2023-04-12T05:18:14;7.20;99.90
2997;DHT22;1508;48.744;9.110;2023-04-12T05:21:03;7.10;99.90
2997;DHT22;1508;48.744;9.110;2023-04-12T05:23:49;7.20;99.90
2997;DHT22;1508;48.744;9.110;2023-04-12T05:26:35;7.20;99.90
2997;DHT22;1508;48.744;9.110;2023-04-12T05:29:20;7.20;99.90
2997;DHT22;1508;48.744;9.110;2023-04-12T05:32:06;7.30;99.90
2997;DHT22;1508;48.744;9.110;2023-04-12T05:34:52;7.30;99.90
2997;DHT22;1508;48.744;9.110;2023-04-12T05:37:38;7.30;99.90
2997;DHT22;1508;48.744;9.110;2023-04-12T05:40:23;7.30;99.90
2997;DHT22;1508;48.744;9.110;2023-04-12T05:43:09;7.20;99.90
2997;DHT22;1508;48.744;9.110;2023-04-12T05:45:55;7.20;99.90
2997;DHT22;1508;48.744;9.110;2023-04-12T05:48:40;7.30;99.90
2997;DHT22;1508;48.744;9.110;2023-04-12T05:51:26;7.30;99.90
2997;DHT22;1508;48.744;9.110;2023-04-12T05:54:12;7.30;99.90
2997;DHT22;1508;48.744;9.110;2023-04-12T05:56:58;7.30;99.90
2997;DHT22;1508;48.744;9.110;2023-04-12T05:59:43;7.30;99.90
2997;DHT22;1508;48.744;9.110;2023-04-12T06:02:29;7.30;99.90
2997;DHT22;1508;48.744;9.110;2023-04-12T06:05:15;7.30;99.90
2997;DHT22;1508;48.744;9.110;2023-04-12T06:08:01;7.30;99.90
2997;DHT22;1508;48.744;9.110;2023-04-12T06:10:46;7.40;99.90
2997;DHT22;1508;48.744;9.110;2023-04-12T06:13:32;7.40;99.90
2997;DHT22;1508;48.744;9.110;2023-04-12T06:16:18;7.40;99.90
2997;DHT22;1508;48.744;9.110;2023-04-12T06:19:04;7.50;99.90
2997;DHT22;1508;48.744;9.110;2023-04-12T06:21:50;7.50;99.90
2997;DHT22;1508;48.744;9.110;2023-04-12T06:24:36;7.50;99.90
2997;DHT22;1508;48.744;9.110;2023-04-12T06:27:21;7.50;99.90
2997;DHT22;1508;48.744;9.110;2023-04-12T06:30:07;7.60;99.90
2997;DHT22;1508;48.744;9.110;2023-04-12T06:32:53;7.70;99.90
2997;DHT22;1508;48.744;9.110;2023-04-12T06:35:39;7.80;99.90
2997;DHT22;1508;48.744;9.110;2023-04-12T06:38:25;7.80;99.90
2997;DHT22;1508;48.744;9.110;2023-04-12T06:41:10;7.80;99.90
2997;DHT22;1508;48.744;9.110;2023-04-12T06:43:56;7.90;99.90
2997;DHT22;1508;48.744;9.110;2023-04-12T06:46:42;8.00;99.90
2997;DHT22;1508;48.744;9.110;2023-04-12T06:49:28;8.00;99.90
2997;DHT22;1508;48.744;9.110;2023-04-12T06:52:13;8.10;99.90
2997;DHT22;1508;48.744;9.110;2023-04-12T06:54:59;8.10;99.90
2997;DHT22;1508;48.744;9.110;2023-04-12T06:57:45;8.20;99.90
2997;DHT22;1508;48.744;9.110;2023-04-12T07:00:31;8.00;99.90
2997;DHT22;1508;48.744;9.110;2023-04-12T07:03:16;8.00;99.90
2997;DHT22;1508;48.744;9.110;2023-04-12T07:06:02;8.00;99.90
2997;DHT22;1508;48.744;9.110;2023-04-12T07:08:48;8.00;99.90
2997;DHT22;1508;48.744;9.110;2023-04-12T07:11:34;8.10;99.90
2997;DHT22;1508;48.744;9.110;2023-04-12T07:14:19;8.30;99.90
2997;DHT22;1508;48.744;9.110;2023-04-12T07:17:05;8.30;99.90
2997;DHT22;1508;48.744;9.110;2023-04-12T07:19:53;8.30;99.90
2997;DHT22;1508;48.744;9.110;2023-04-12T07:22:39;8.30;99.90
2997;DHT22;1508;48.744;9.110;2023-04-12T07:25:25;8.20;99.90
2997;DHT22;1508;48.744;9.110;2023-04-12T07:28:11;8.30;99.90
2997;DHT22;1508;48.744;9.110;2023-04-12T07:30:56;8.40;99.90
2997;DHT22;1508;48.744;9.110;2023-04-12T07:33:42;8.40;99.90
2997;DHT22;1508;48.744;9.110;2023-04-12T07:36:28;8.30;99.90
2997;DHT22;1508;48.744;9.110;2023-04-12T07:39:14;8.50;99.90
2997;DHT22;1508;48.744;9.110;2023-04-12T07:41:59;8.70;99.90
2997;DHT22;1508;48.744;9.110;2023-04-12T07:44:45;8.60;99.90
2997;DHT22;1508;48.744;9.110;2023-04-12T07:47:31;8.70;99.90
2997;DHT22;1508;48.744;9.110;2023-04-12T07:50:17;8.80;99.90
2997;DHT22;1508;48.744;9.110;2023-04-12T07:56:07;9.10;99.90
2997;DHT22;1508;48.744;9.110;2023-04-12T07:58:52;9.00;99.90
2997;DHT22;1508;48.744;9.110;2023-04-12T08:01:38;9.00;99.90
2997;DHT22;1508;48.744;9.110;2023-04-12T08:04:24;9.10;99.90
2997;DHT22;1508;48.744;9.110;2023-04-12T08:07:10;9.10;99.90
2997;DHT22;1508;48.744;9.110;2023-04-12T08:09:55;9.30;99.90
2997;DHT22;1508;48.744;9.110;2023-04-12T08:12:41;9.30;99.90
2997;DHT22;1508;48.744;9.110;2023-04-12T08:15:27;9.40;99.90
2997;DHT22;1508;48.744;9.110;2023-04-12T08:18:13;9.50;99.90
2997;DHT22;1508;48.744;9.110;2023-04-12T08:20:58;9.50;99.90
2997;DHT22;1508;48.744;9.110;2023-04-12T08:23:44;9.60;99.90
2997;DHT22;1508;48.744;9.110;2023-04-12T08:26:30;9.60;99.90
2997;DHT22;1508;48.744;9.110;2023-04-12T08:29:16;9.60;99.90
2997;DHT22;1508;48.744;9.110;2023-04-12T08:32:01;9.50;99.90
2997;DHT22;1508;48.744;9.110;2023-04-12T08:34:47;9.60;99.90
2997;DHT22;1508;48.744;9.110;2023-04-12T08:37:33;9.60;99.90
2997;DHT22;1508;48.744;9.110;2023-04-12T08:40:19;9.70;99.90
2997;DHT22;1508;48.744;9.110;2023-04-12T08:43:05;9.70;99.90
2997;DHT22;1508;48.744;9.110;2023-04-12T08:45:52;9.70;99.90
2997;DHT22;1508;48.744;9.110;2023-04-12T08:48:38;9.70;99.90
2997;DHT22;1508;48.744;9.110;2023-04-12T08:51:24;9.90;99.90
2997;DHT22;1508;48.744;9.110;2023-04-12T08:54:10;10.00;99.90
2997;DHT22;1508;48.744;9.110;2023-04-12T08:56:57;10.00;99.90
2997;DHT22;1508;48.744;9.110;2023-04-12T08:59:44;10.00;99.90
2997;DHT22;1508;48.744;9.110;2023-04-12T09:02:31;10.00;99.90
2997;DHT22;1508;48.744;9.110;2023-04-12T09:05:23;10.00;99.90
2997;DHT22;1508;48.744;9.110;2023-04-12T09:08:11;10.10;99.90
2997;DHT22;1508;48.744;9.110;2023-04-12T09:10:56;10.10;99.90
2997;DHT22;1508;48.744;9.110;2023-04-12T09:13:42;10.10;99.90
2997;DHT22;1508;48.744;9.110;2023-04-12T09:16:38;10.10;99.90
2997;DHT22;1508;48.744;9.110;2023-04-12T09:19:33;10.20;99.90
2997;DHT22;1508;48.744;9.110;2023-04-12T09:22:31;10.30;99.90
2997;DHT22;1508;48.744;9.110;2023-04-12T09:25:17;10.50;99.90
2997;DHT22;1508;48.744;9.110;2023-04-12T09:28:03;10.70;99.90
2997;DHT22;1508;48.744;9.110;2023-04-12T09:30:49;11.00;99.90
2997;DHT22;1508;48.744;9.110;2023-04-12T09:33:35;11.10;99.90
2997;DHT22;1508;48.744;9.110;2023-04-12T09:36:21;11.30;99.90
2997;DHT22;1508;48.744;9.110;2023-04-12T09:39:07;11.50;99.90
2997;DHT22;1508;48.744;9.110;2023-04-12T09:42:13;11.50;99.90
2997;DHT22;1508;48.744;9.110;2023-04-12T09:44:59;11.60;99.90
2997;DHT22;1508;48.744;9.110;2023-04-12T09:47:45;11.50;99.90
2997;DHT22;1508;48.744;9.110;2023-04-12T09:50:31;11.40;99.90
2997;DHT22;1508;48.744;9.110;2023-04-12T09:53:16;11.40;99.90
2997;DHT22;1508;48.744;9.110;2023-04-12T09:56:03;11.50;99.90
2997;DHT22;1508;48.744;9.110;2023-04-12T09:58:50;11.70;99.90
2997;DHT22;1508;48.744;9.110;2023-04-12T10:01:39;11.60;99.90
2997;DHT22;1508;48.744;9.110;2023-04-12T10:04:25;11.80;99.90
2997;DHT22;1508;48.744;9.110;2023-04-12T10:07:11;11.90;99.90
2997;DHT22;1508;48.744;9.110;2023-04-12T10:09:57;11.90;99.90
2997;DHT22;1508;48.744;9.110;2023-04-12T10:12:44;12.00;99.90
2997;DHT22;1508;48.744;9.110;2023-04-12T10:15:30;12.30;99.90
2997;DHT22;1508;48.744;9.110;2023-04-12T10:18:17;12.50;99.90
2997;DHT22;1508;48.744;9.110;2023-04-12T10:21:03;12.60;99.90
2997;DHT22;1508;48.744;9.110;2023-04-12T10:23:49;12.60;99.90
2997;DHT22;1508;48.744;9.110;2023-04-12T10:26:35;12.50;99.90
2997;DHT22;1508;48.744;9.110;2023-04-12T10:29:26;12.60;99.90
2997;DHT22;1508;48.744;9.110;2023-04-12T10:32:22;12.40;99.90
2997;DHT22;1508;48.744;9.110;2023-04-12T10:35:08;12.60;99.90
2997;DHT22;1508;48.744;9.110;2023-04-12T10:38:00;12.90;99.90
2997;DHT22;1508;48.744;9.110;2023-04-12T10:44:22;13.30;99.90
2997;DHT22;1508;48.744;9.110;2023-04-12T10:47:08;13.40;99.90
2997;DHT22;1508;48.744;9.110;2023-04-12T10:55:57;13.10;99.90
2997;DHT22;1508;48.744;9.110;2023-04-12T11:01:34;13.20;99.90
2997;DHT22;1508;48.744;9.110;2023-04-12T11:04:20;13.30;99.90
2997;DHT22;1508;48.744;9.110;2023-04-12T11:07:09;13.40;99.90
2997;DHT22;1508;48.744;9.110;2023-04-12T11:09:55;13.50;99.90
2997;DHT22;1508;48.744;9.110;2023-04-12T11:13:04;13.70;99.90
2997;DHT22;1508;48.744;9.110;2023-04-12T11:15:53;14.10;99.90
2997;DHT22;1508;48.744;9.110;2023-04-12T11:18:39;14.70;99.90
2997;DHT22;1508;48.744;9.110;2023-04-12T11:21:25;14.90;99.90
2997;DHT22;1508;48.744;9.110;2023-04-12T11:24:12;14.50;99.90
2997;DHT22;1508;48.744;9.110;2023-04-12T11:26:58;14.20;99.90
2997;DHT22;1508;48.744;9.110;2023-04-12T11:29:46;14.30;99.90
2997;DHT22;1508;48.744;9.110;2023-04-12T11:32:32;14.40;99.90
2997;DHT22;1508;48.744;9.110;2023-04-12T11:35:18;14.30;99.90
2997;DHT22;1508;48.744;9.110;2023-04-12T11:38:03;13.80;99.90
2997;DHT22;1508;48.744;9.110;2023-04-12T11:40:49;13.90;99.90
2997;DHT22;1508;48.744;9.110;2023-04-12T11:43:35;14.40;99.90
2997;DHT22;1508;48.744;9.110;2023-04-12T11:46:21;14.30;99.90
2997;DHT22;1508;48.744;9.110;2023-04-12T11:49:07;14.30;99.90
2997;DHT22;1508;48.744;9.110;2023-04-12T11:52:00;14.20;99.90
2997;DHT22;1508;48.744;9.110;2023-04-12T11:54:47;14.70;99.90
2997;DHT22;1508;48.744;9.110;2023-04-12T11:57:33;14.70;99.90
2997;DHT22;1508;48.744;9.110;2023-04-12T12:00:21;14.80;99.90
2997;DHT22;1508;48.744;9.110;2023-04-12T12:03:07;14.80;99.90
2997;DHT22;1508;48.744;9.110;2023-04-12T12:05:52;14.70;99.90
2997;DHT22;1508;48.744;9.110;2023-04-12T12:08:38;14.50;99.90
2997;DHT22;1508;48.744;9.110;2023-04-12T12:11:24;14.20;99.90
2997;DHT22;1508;48.744;9.110;2023-04-12T12:14:10;14.50;99.90
2997;DHT22;1508;48.744;9.110;2023-04-12T12:16:56;14.50;99.90
2997;DHT22;1508;48.744;9.110;2023-04-12T12:19:43;14.60;99.90
2997;DHT22;1508;48.744;9.110;2023-04-12T12:22:29;14.70;99.90
2997;DHT22;1508;48.744;9.110;2023-04-12T12:25:18;14.90;99.90
2997;DHT22;1508;48.744;9.110;2023-04-12T12:28:04;15.10;99.90
2997;DHT22;1508;48.744;9.110;2023-04-12T12:30:53;15.00;99.90
2997;DHT22;1508;48.744;9.110;2023-04-12T12:33:38;14.70;99.90
2997;DHT22;1508;48.744;9.110;2023-04-12T12:36:28;14.50;99.90
2997;DHT22;1508;48.744;9.110;2023-04-12T12:39:14;14.70;99.90
2997;DHT22;1508;48.744;9.110;2023-04-12T12:41:59;15.00;99.90
2997;DHT22;1508;48.744;9.110;2023-04-12T12:44:45;15.40;99.90
2997;DHT22;1508;48.744;9.110;2023-04-12T12:47:31;15.60;99.90
2997;DHT22;1508;48.744;9.110;2023-04-12T12:50:27;15.70;99.90
2997;DHT22;1508;48.744;9.110;2023-04-12T12:53:13;15.70;99.90
2997;DHT22;1508;48.744;9.110;2023-04-12T12:55:59;15.60;99.90
2997;DHT22;1508;48.744;9.110;2023-04-12T12:58:44;15.50;99.90
2997;DHT22;1508;48.744;9.110;2023-04-12T13:01:30;15.30;99.90
2997;DHT22;1508;48.744;9.110;2023-04-12T13:04:16;15.30;99.90
2997;DHT22;1508;48.744;9.110;2023-04-12T13:07:01;15.10;99.90
2997;DHT22;1508;48.744;9.110;2023-04-12T13:09:47;15.10;99.90
2997;DHT22;1508;48.744;9.110;2023-04-12T13:12:35;15.30;99.90
2997;DHT22;1508;48.744;9.110;2023-04-12T13:15:20;15.30;99.90
2997;DHT22;1508;48.744;9.110;2023-04-12T13:18:06;15.20;99.90
2997;DHT22;1508;48.744;9.110;2023-04-12T13:20:52;15.20;99.90
2997;DHT22;1508;48.744;9.110;2023-04-12T13:23:38;14.90;99.90
2997;DHT22;1508;48.744;9.110;2023-04-12T13:26:23;14.60;99.90
2997;DHT22;1508;48.744;9.110;2023-04-12T13:29:09;14.60;99.90
2997;DHT22;1508;48.744;9.110;2023-04-12T13:31:55;14.30;99.90
2997;DHT22;1508;48.744;9.110;2023-04-12T13:34:41;14.40;99.90
2997;DHT22;1508;48.744;9.110;2023-04-12T13:37:26;14.50;99.90
2997;DHT22;1508;48.744;9.110;2023-04-12T13:40:12;14.70;99.90
2997;DHT22;1508;48.744;9.110;2023-04-12T13:42:58;15.00;99.90
2997;DHT22;1508;48.744;9.110;2023-04-12T13:45:44;14.70;99.90
2997;DHT22;1508;48.744;9.110;2023-04-12T13:48:30;14.80;99.90
2997;DHT22;1508;48.744;9.110;2023-04-12T13:51:15;15.00;99.90
2997;DHT22;1508;48.744;9.110;2023-04-12T13:54:01;15.00;99.90
2997;DHT22;1508;48.744;9.110;2023-04-12T13:56:47;14.90;99.90
2997;DHT22;1508;48.744;9.110;2023-04-12T13:59:33;14.70;99.90
2997;DHT22;1508;48.744;9.110;2023-04-12T14:02:19;14.70;99.90
2997;DHT22;1508;48.744;9.110;2023-04-12T14:05:04;14.50;99.90
2997;DHT22;1508;48.744;9.110;2023-04-12T14:07:50;14.30;99.90
2997;DHT22;1508;48.744;9.110;2023-04-12T14:10:36;14.20;99.90
2997;DHT22;1508;48.744;9.110;2023-04-12T14:13:22;14.40;99.90
2997;DHT22;1508;48.744;9.110;2023-04-12T14:16:08;14.60;99.90
2997;DHT22;1508;48.744;9.110;2023-04-12T14:18:54;15.20;99.90
2997;DHT22;1508;48.744;9.110;2023-04-12T14:21:40;15.80;99.90
2997;DHT22;1508;48.744;9.110;2023-04-12T14:24:25;15.70;99.90
2997;DHT22;1508;48.744;9.110;2023-04-12T14:27:11;15.80;99.90
2997;DHT22;1508;48.744;9.110;2023-04-12T14:29:57;15.80;99.90
2997;DHT22;1508;48.744;9.110;2023-04-12T14:32:43;15.30;99.90
2997;DHT22;1508;48.744;9.110;2023-04-12T14:35:29;15.00;99.90
2997;DHT22;1508;48.744;9.110;2023-04-12T14:38:14;15.10;99.90
2997;DHT22;1508;48.744;9.110;2023-04-12T14:41:00;15.10;99.90
2997;DHT22;1508;48.744;9.110;2023-04-12T14:43:51;15.20;99.90
2997;DHT22;1508;48.744;9.110;2023-04-12T14:46:37;15.10;99.90
2997;DHT22;1508;48.744;9.110;2023-04-12T14:49:22;15.10;99.90
2997;DHT22;1508;48.744;9.110;2023-04-12T14:52:08;14.80;99.90
2997;DHT22;1508;48.744;9.110;2023-04-12T14:54:54;14.80;99.90
2997;DHT22;1508;48.744;9.110;2023-04-12T14:57:39;14.70;99.90
2997;DHT22;1508;48.744;9.110;2023-04-12T15:00:25;14.30;99.90
2997;DHT22;1508;48.744;9.110;2023-04-12T15:03:11;14.20;99.90
2997;DHT22;1508;48.744;9.110;2023-04-12T15:05:57;14.40;99.90
2997;DHT22;1508;48.744;9.110;2023-04-12T15:08:42;14.30;99.90
2997;DHT22;1508;48.744;9.110;2023-04-12T15:11:28;14.30;99.90
2997;DHT22;1508;48.744;9.110;2023-04-12T15:14:14;14.10;99.90
2997;DHT22;1508;48.744;9.110;2023-04-12T15:17:00;13.90;99.90
2997;DHT22;1508;48.744;9.110;2023-04-12T15:19:45;13.90;99.90
2997;DHT22;1508;48.744;9.110;2023-04-12T15:22:33;12.50;99.90
2997;DHT22;1508;48.744;9.110;2023-04-12T15:25:19;10.80;99.90
2997;DHT22;1508;48.744;9.110;2023-04-12T15:28:04;10.30;99.90
2997;DHT22;1508;48.744;9.110;2023-04-12T15:30:51;9.90;99.90
2997;DHT22;1508;48.744;9.110;2023-04-12T15:33:37;9.60;99.90
2997;DHT22;1508;48.744;9.110;2023-04-12T15:36:23;9.40;99.90
2997;DHT22;1508;48.744;9.110;2023-04-12T15:39:09;9.30;99.90
2997;DHT22;1508;48.744;9.110;2023-04-12T15:41:54;9.20;99.90
2997;DHT22;1508;48.744;9.110;2023-04-12T15:44:40;9.20;99.90
2997;DHT22;1508;48.744;9.110;2023-04-12T15:47:26;9.20;99.90
2997;DHT22;1508;48.744;9.110;2023-04-12T15:50:12;9.10;99.90
2997;DHT22;1508;48.744;9.110;2023-04-12T15:52:58;9.20;99.90
2997;DHT22;1508;48.744;9.110;2023-04-12T15:55:43;9.30;99.90
2997;DHT22;1508;48.744;9.110;2023-04-12T15:58:29;9.40;99.90
2997;DHT22;1508;48.744;9.110;2023-04-12T16:01:15;9.60;99.90
2997;DHT22;1508;48.744;9.110;2023-04-12T16:04:01;9.70;99.90
2997;DHT22;1508;48.744;9.110;2023-04-12T16:06:47;9.60;99.90
2997;DHT22;1508;48.744;9.110;2023-04-12T16:09:32;9.50;99.90
2997;DHT22;1508;48.744;9.110;2023-04-12T16:12:18;9.50;99.90
2997;DHT22;1508;48.744;9.110;2023-04-12T16:15:04;9.50;99.90
2997;DHT22;1508;48.744;9.110;2023-04-12T16:17:50;9.70;99.90
2997;DHT22;1508;48.744;9.110;2023-04-12T16:20:36;9.70;99.90
2997;DHT22;1508;48.744;9.110;2023-04-12T16:23:21;9.80;99.90
2997;DHT22;1508;48.744;9.110;2023-04-12T16:26:07;9.80;99.90
2997;DHT22;1508;48.744;9.110;2023-04-12T16:28:53;9.90;99.90
2997;DHT22;1508;48.744;9.110;2023-04-12T16:31:39;10.10;99.90
2997;DHT22;1508;48.744;9.110;2023-04-12T16:34:24;10.20;99.90
2997;DHT22;1508;48.744;9.110;2023-04-12T16:37:10;10.50;99.90
2997;DHT22;1508;48.744;9.110;2023-04-12T16:39:56;10.50;99.90
2997;DHT22;1508;48.744;9.110;2023-04-12T16:42:42;10.60;99.90
2997;DHT22;1508;48.744;9.110;2023-04-12T16:45:28;10.60;99.90
2997;DHT22;1508;48.744;9.110;2023-04-12T16:48:14;10.60;99.90
2997;DHT22;1508;48.744;9.110;2023-04-12T16:51:00;10.60;99.90
2997;DHT22;1508;48.744;9.110;2023-04-12T16:53:46;10.70;99.90
2997;DHT22;1508;48.744;9.110;2023-04-12T16:56:32;10.80;99.90
2997;DHT22;1508;48.744;9.110;2023-04-12T16:59:17;10.80;99.90
2997;DHT22;1508;48.744;9.110;2023-04-12T17:02:03;10.80;99.90
2997;DHT22;1508;48.744;9.110;2023-04-12T17:04:49;10.80;99.90
2997;DHT22;1508;48.744;9.110;2023-04-12T17:07:34;10.70;99.90
2997;DHT22;1508;48.744;9.110;2023-04-12T17:10:21;10.60;99.90
2997;DHT22;1508;48.744;9.110;2023-04-12T17:13:07;10.50;99.90
2997;DHT22;1508;48.744;9.110;2023-04-12T17:15:53;10.50;99.90
2997;DHT22;1508;48.744;9.110;2023-04-12T17:18:38;10.40;99.90
2997;DHT22;1508;48.744;9.110;2023-04-12T17:21:24;10.30;99.90
2997;DHT22;1508;48.744;9.110;2023-04-12T17:24:10;10.30;99.90
2997;DHT22;1508;48.744;9.110;2023-04-12T17:26:56;10.20;99.90
2997;DHT22;1508;48.744;9.110;2023-04-12T17:29:41;10.20;99.90
2997;DHT22;1508;48.744;9.110;2023-04-12T17:32:27;10.20;99.90
2997;DHT22;1508;48.744;9.110;2023-04-12T17:35:13;10.10;99.90
2997;DHT22;1508;48.744;9.110;2023-04-12T17:37:59;10.10;99.90
2997;DHT22;1508;48.744;9.110;2023-04-12T17:40:44;10.20;99.90
2997;DHT22;1508;48.744;9.110;2023-04-12T17:43:30;10.10;99.90
2997;DHT22;1508;48.744;9.110;2023-04-12T17:46:16;10.00;99.90
2997;DHT22;1508;48.744;9.110;2023-04-12T17:49:02;10.00;99.90
2997;DHT22;1508;48.744;9.110;2023-04-12T17:51:47;9.90;99.90
2997;DHT22;1508;48.744;9.110;2023-04-12T17:54:36;9.90;99.90
2997;DHT22;1508;48.744;9.110;2023-04-12T17:57:23;9.90;99.90
2997;DHT22;1508;48.744;9.110;2023-04-12T18:00:08;9.90;99.90
2997;DHT22;1508;48.744;9.110;2023-04-12T18:02:55;9.80;99.90
2997;DHT22;1508;48.744;9.110;2023-04-12T18:05:40;9.70;99.90
2997;DHT22;1508;48.744;9.110;2023-04-12T18:08:26;9.70;99.90
2997;DHT22;1508;48.744;9.110;2023-04-12T18:11:12;9.60;99.90
2997;DHT22;1508;48.744;9.110;2023-04-12T18:13:57;9.60;99.90
2997;DHT22;1508;48.744;9.110;2023-04-12T18:16:43;9.50;99.90
2997;DHT22;1508;48.744;9.110;2023-04-12T18:19:29;9.50;99.90
2997;DHT22;1508;48.744;9.110;2023-04-12T18:22:15;9.40;99.90
2997;DHT22;1508;48.744;9.110;2023-04-12T18:25:01;9.30;99.90
2997;DHT22;1508;48.744;9.110;2023-04-12T18:27:46;9.20;99.90
2997;DHT22;1508;48.744;9.110;2023-04-12T18:30:32;9.20;99.90
2997;DHT22;1508;48.744;9.110;2023-04-12T18:33:18;9.10;99.90
2997;DHT22;1508;48.744;9.110;2023-04-12T18:36:04;9.10;99.90
2997;DHT22;1508;48.744;9.110;2023-04-12T18:38:50;9.00;99.90
2997;DHT22;1508;48.744;9.110;2023-04-12T18:41:36;8.90;99.90
2997;DHT22;1508;48.744;9.110;2023-04-12T18:44:21;8.90;99.90
2997;DHT22;1508;48.744;9.110;2023-04-12T18:47:07;8.80;99.90